Time;durP1;ratioP1;P1;durP2;ratioP2;P2;SDS_P1;SDS_P2;PMS_P1;PMS_P2;Temp;Humidity;BMP_temperature;BMP_pressure;BME280_temperature;BME280_humidity;BME280_pressure;Samples;Min_cycle;Max_cycle;Signal;HPM_P1;HPM_P2
2022/03/31 00:00:17;;;;;;;42.50;24.00;;;;;;;;;;5092433;28;20238;-77
2022/03/31 00:02:45;;;;;;;43.83;24.10;;;;;;;;;;5098789;28;20220;-77
2022/03/31 00:05:13;;;;;;;48.27;25.67;;;;;;;;;;5104311;28;20233;-77
2022/03/31 00:07:50;;;;;;;47.90;26.03;;;;;;;;;;5105901;28;20271;-77
2022/03/31 00:10:20;;;;;;;47.13;26.30;;;;;;;;;;5085362;28;20761;-77
2022/03/31 00:12:48;;;;;;;49.67;26.17;;;;;;;;;;5084818;28;20202;-77
2022/03/31 00:15:16;;;;;;;47.60;25.57;;;;;;;;;;5086302;28;20295;-77
2022/03/31 00:17:43;;;;;;;45.70;26.67;;;;;;;;;;5078611;28;20238;-77
2022/03/31 00:20:11;;;;;;;48.70;26.47;;;;;;;;;;5092240;28;20265;-77
2022/03/31 00:22:39;;;;;;;49.77;26.30;;;;;;;;;;5071902;28;20603;-77
2022/03/31 00:25:07;;;;;;;48.30;26.27;;;;;;;;;;5072679;28;20203;-77
2022/03/31 00:27:35;;;;;;;48.93;26.53;;;;;;;;;;5074561;28;20222;-77
2022/03/31 00:30:02;;;;;;;49.87;27.07;;;;;;;;;;5092302;28;20220;-77
2022/03/31 00:32:31;;;;;;;51.17;27.87;;;;;;;;;;5092319;28;20244;-77
2022/03/31 00:34:58;;;;;;;45.53;26.87;;;;;;;;;;5091941;28;20636;-77
2022/03/31 00:37:27;;;;;;;53.00;27.77;;;;;;;;;;5091243;28;20231;-78
2022/03/31 00:39:54;;;;;;;50.17;27.07;;;;;;;;;;5071530;28;20219;-77
2022/03/31 00:42:21;;;;;;;47.43;26.73;;;;;;;;;;5080861;28;20285;-76
2022/03/31 00:44:49;;;;;;;52.63;27.40;;;;;;;;;;5091485;28;20198;-77
2022/03/31 00:47:17;;;;;;;50.73;27.67;;;;;;;;;;5072037;28;20235;-77
2022/03/31 00:49:46;;;;;;;52.33;27.07;;;;;;;;;;5089303;28;20257;-77
2022/03/31 00:52:13;;;;;;;54.20;27.13;;;;;;;;;;5073722;28;20578;-77
2022/03/31 00:54:41;;;;;;;51.57;26.97;;;;;;;;;;5072396;28;20231;-77
2022/03/31 00:57:10;;;;;;;55.53;28.27;;;;;;;;;;5082700;28;20296;-76
2022/03/31 00:59:37;;;;;;;53.47;27.57;;;;;;;;;;5091846;28;20236;-77
2022/03/31 01:02:04;;;;;;;46.77;27.43;;;;;;;;;;5089803;28;20193;-77
2022/03/31 01:04:34;;;;;;;53.40;27.87;;;;;;;;;;5075971;28;20270;-77
2022/03/31 01:07:03;;;;;;;52.00;27.97;;;;;;;;;;5091435;28;20211;-77
2022/03/31 01:09:32;;;;;;;54.97;27.80;;;;;;;;;;5109538;28;20569;-78
2022/03/31 01:12:00;;;;;;;53.07;27.73;;;;;;;;;;5112418;28;20541;-77
2022/03/31 01:14:27;;;;;;;55.53;28.43;;;;;;;;;;5092990;28;20236;-77
2022/03/31 01:16:54;;;;;;;53.80;28.13;;;;;;;;;;5092077;28;20241;-77
2022/03/31 01:19:21;;;;;;;58.87;28.67;;;;;;;;;;5091232;28;20260;-77
2022/03/31 01:21:49;;;;;;;50.93;27.33;;;;;;;;;;5109770;28;20287;-77
2022/03/31 01:24:18;;;;;;;53.00;28.07;;;;;;;;;;5099780;28;20225;-77
2022/03/31 01:26:46;;;;;;;52.67;28.40;;;;;;;;;;5111915;28;20675;-77
2022/03/31 01:29:13;;;;;;;51.10;27.90;;;;;;;;;;5098291;28;20224;-77
2022/03/31 01:31:40;;;;;;;58.43;29.00;;;;;;;;;;5091825;28;20236;-77
2022/03/31 01:34:07;;;;;;;52.37;28.27;;;;;;;;;;5095375;28;20637;-77
2022/03/31 01:36:35;;;;;;;50.97;28.47;;;;;;;;;;5095046;28;20300;-77
2022/03/31 01:39:02;;;;;;;49.47;27.40;;;;;;;;;;5095015;28;20292;-77
2022/03/31 01:41:31;;;;;;;51.07;27.97;;;;;;;;;;5095102;28;20232;-77
2022/03/31 01:43:59;;;;;;;52.60;26.47;;;;;;;;;;5096529;28;20202;-78
2022/03/31 01:46:26;;;;;;;51.77;27.40;;;;;;;;;;5095291;28;20288;-78
2022/03/31 01:48:53;;;;;;;57.30;28.47;;;;;;;;;;5094986;28;20270;-77
2022/03/31 01:51:20;;;;;;;54.40;27.47;;;;;;;;;;5100248;28;20216;-79
2022/03/31 01:53:48;;;;;;;53.50;28.33;;;;;;;;;;5115265;28;20229;-77
2022/03/31 01:56:15;;;;;;;54.57;28.87;;;;;;;;;;5115213;28;20201;-76
2022/03/31 01:58:44;;;;;;;49.60;26.90;;;;;;;;;;5114857;28;20803;-77
2022/03/31 02:01:11;;;;;;;51.33;27.20;;;;;;;;;;5115554;28;20229;-77
2022/03/31 02:03:38;;;;;;;50.00;27.43;;;;;;;;;;5104743;28;20232;-77
2022/03/31 02:06:06;;;;;;;53.13;27.47;;;;;;;;;;5095670;28;20290;-77
2022/03/31 02:08:33;;;;;;;53.67;27.37;;;;;;;;;;5094875;28;20265;-77
2022/03/31 02:11:00;;;;;;;52.77;27.00;;;;;;;;;;5094620;28;20280;-77
2022/03/31 02:13:27;;;;;;;51.57;26.57;;;;;;;;;;5094989;28;20262;-77
2022/03/31 02:15:56;;;;;;;51.57;26.90;;;;;;;;;;5104413;28;20207;-77
2022/03/31 02:18:23;;;;;;;52.37;26.80;;;;;;;;;;5093936;28;20197;-77
2022/03/31 02:20:51;;;;;;;52.20;27.47;;;;;;;;;;5093416;28;20262;-77
2022/03/31 02:23:18;;;;;;;55.50;27.60;;;;;;;;;;5094465;28;20204;-77
2022/03/31 02:25:45;;;;;;;49.60;26.40;;;;;;;;;;5114258;28;20199;-76
2022/03/31 02:28:13;;;;;;;52.63;27.53;;;;;;;;;;5114157;28;20229;-76
2022/03/31 02:30:41;;;;;;;59.03;28.43;;;;;;;;;;5114490;28;20201;-76
2022/03/31 02:33:10;;;;;;;54.90;27.93;;;;;;;;;;5114071;28;20207;-77
2022/03/31 02:35:37;;;;;;;54.47;27.87;;;;;;;;;;5114712;28;20285;-76
2022/03/31 02:38:04;;;;;;;53.13;27.27;;;;;;;;;;5114842;28;20286;-76
2022/03/31 02:40:32;;;;;;;53.57;26.83;;;;;;;;;;5114139;28;20312;-76
2022/03/31 02:42:59;;;;;;;55.60;28.57;;;;;;;;;;5109845;28;20288;-76
2022/03/31 02:45:26;;;;;;;54.63;28.00;;;;;;;;;;5109733;28;20223;-76
2022/03/31 02:47:53;;;;;;;54.97;27.73;;;;;;;;;;5113307;28;20305;-76
2022/03/31 02:50:22;;;;;;;55.80;28.93;;;;;;;;;;5114249;28;20774;-76
2022/03/31 02:55:34;;;;;;;53.50;27.70;;;;;;;;;;5094153;28;20767;-76
2022/03/31 02:58:02;;;;;;;55.23;28.37;;;;;;;;;;5105660;28;20205;-76
2022/03/31 03:00:30;;;;;;;58.17;28.27;;;;;;;;;;5114292;28;20323;-75
2022/03/31 03:02:58;;;;;;;59.07;26.83;;;;;;;;;;5112498;28;20329;-76
2022/03/31 03:05:26;;;;;;;58.53;28.17;;;;;;;;;;5105685;28;20290;-77
2022/03/31 03:07:54;;;;;;;55.57;26.77;;;;;;;;;;5112935;28;20728;-77
2022/03/31 03:10:21;;;;;;;56.97;28.00;;;;;;;;;;5114116;28;20229;-78
2022/03/31 03:12:49;;;;;;;56.97;28.73;;;;;;;;;;5114010;28;20286;-77
2022/03/31 03:15:17;;;;;;;56.87;27.90;;;;;;;;;;5113409;28;20564;-78
2022/03/31 03:17:45;;;;;;;58.10;28.10;;;;;;;;;;5113725;28;20227;-78
2022/03/31 03:20:14;;;;;;;55.07;28.27;;;;;;;;;;5114052;28;20262;-78
2022/03/31 03:22:43;;;;;;;61.37;29.73;;;;;;;;;;5114049;28;20225;-77
2022/03/31 03:25:12;;;;;;;58.30;29.43;;;;;;;;;;5113513;28;20299;-77
2022/03/31 03:27:39;;;;;;;60.57;29.37;;;;;;;;;;5114017;28;20201;-78
2022/03/31 03:30:07;;;;;;;60.23;29.40;;;;;;;;;;5096279;28;20224;-77
2022/03/31 03:32:36;;;;;;;59.90;29.20;;;;;;;;;;5093785;28;20232;-78
2022/03/31 03:35:03;;;;;;;56.87;29.40;;;;;;;;;;5092884;28;20550;-77
2022/03/31 03:37:30;;;;;;;58.50;29.13;;;;;;;;;;5093362;28;20227;-78
2022/03/31 03:40:02;;;;;;;57.50;28.60;;;;;;;;;;5099661;28;20259;-78
2022/03/31 03:42:29;;;;;;;57.33;29.60;;;;;;;;;;5105241;28;20197;-78
2022/03/31 03:44:56;;;;;;;58.70;29.07;;;;;;;;;;5112276;28;20201;-78
2022/03/31 03:47:23;;;;;;;55.20;28.77;;;;;;;;;;5103221;28;20282;-78
2022/03/31 03:49:51;;;;;;;57.80;28.20;;;;;;;;;;5093068;28;20628;-78
2022/03/31 03:52:18;;;;;;;54.20;28.77;;;;;;;;;;5092897;28;20790;-78
2022/03/31 03:54:45;;;;;;;56.30;28.37;;;;;;;;;;5092511;28;20691;-78
2022/03/31 03:57:14;;;;;;;59.10;29.70;;;;;;;;;;5092815;28;20200;-78
2022/03/31 03:59:41;;;;;;;53.07;28.07;;;;;;;;;;5108909;28;20589;-77
2022/03/31 04:02:08;;;;;;;55.07;27.87;;;;;;;;;;5112587;28;20329;-78
2022/03/31 04:04:36;;;;;;;55.47;28.33;;;;;;;;;;5111294;28;20230;-78
2022/03/31 04:07:04;;;;;;;58.63;28.80;;;;;;;;;;5112817;28;20198;-78
2022/03/31 04:09:31;;;;;;;51.57;26.93;;;;;;;;;;5108577;28;20284;-78
2022/03/31 04:11:58;;;;;;;51.97;27.13;;;;;;;;;;5099299;28;20197;-78
2022/03/31 04:14:27;;;;;;;51.83;28.37;;;;;;;;;;5112349;28;20240;-78
2022/03/31 04:16:55;;;;;;;50.63;26.80;;;;;;;;;;5112990;28;20231;-78
2022/03/31 04:19:23;;;;;;;47.37;27.17;;;;;;;;;;5108723;28;20202;-78
2022/03/31 04:21:50;;;;;;;53.07;27.23;;;;;;;;;;5108645;28;20245;-78
2022/03/31 04:24:17;;;;;;;53.37;26.90;;;;;;;;;;5112785;28;20290;-78
2022/03/31 04:26:44;;;;;;;50.73;26.87;;;;;;;;;;5108498;28;20220;-78
2022/03/31 04:29:11;;;;;;;48.13;25.43;;;;;;;;;;5096927;28;20305;-78
2022/03/31 04:31:42;;;;;;;45.97;25.07;;;;;;;;;;5105469;28;20190;-78
2022/03/31 04:34:10;;;;;;;52.20;27.03;;;;;;;;;;5092746;28;20226;-77
2022/03/31 04:36:37;;;;;;;47.43;25.70;;;;;;;;;;5091991;28;20198;-78
2022/03/31 04:39:04;;;;;;;46.83;24.70;;;;;;;;;;5112389;28;20288;-78
2022/03/31 04:41:32;;;;;;;50.43;25.50;;;;;;;;;;5112395;28;20257;-78
2022/03/31 04:43:59;;;;;;;49.27;26.30;;;;;;;;;;5092438;28;20235;-78
2022/03/31 04:46:26;;;;;;;47.60;24.63;;;;;;;;;;5091841;28;20291;-77
2022/03/31 04:48:55;;;;;;;46.97;26.20;;;;;;;;;;5091692;28;20197;-77
2022/03/31 04:51:22;;;;;;;51.10;27.20;;;;;;;;;;5092214;28;20563;-78
2022/03/31 04:53:49;;;;;;;50.00;25.37;;;;;;;;;;5092070;28;20248;-78
2022/03/31 04:56:17;;;;;;;48.93;26.40;;;;;;;;;;5091806;28;20238;-77
2022/03/31 04:58:44;;;;;;;45.10;25.07;;;;;;;;;;5101463;28;20256;-78
2022/03/31 05:01:11;;;;;;;46.07;24.97;;;;;;;;;;5091826;28;20331;-76
2022/03/31 05:03:38;;;;;;;49.20;24.77;;;;;;;;;;5101714;28;20303;-78
2022/03/31 05:06:07;;;;;;;43.10;23.87;;;;;;;;;;5091257;28;20742;-78
2022/03/31 05:08:36;;;;;;;42.57;23.17;;;;;;;;;;5095107;28;20582;-77
2022/03/31 05:11:03;;;;;;;42.73;24.13;;;;;;;;;;5095467;28;20227;-76
2022/03/31 05:13:31;;;;;;;38.63;21.97;;;;;;;;;;5095516;28;20207;-77
2022/03/31 05:15:58;;;;;;;40.73;22.73;;;;;;;;;;5095762;28;20200;-77
2022/03/31 05:18:25;;;;;;;42.03;22.27;;;;;;;;;;5095679;28;20763;-75
2022/03/31 05:20:54;;;;;;;40.50;21.73;;;;;;;;;;5095574;28;20695;-75
2022/03/31 05:23:22;;;;;;;40.87;22.20;;;;;;;;;;5100849;28;20221;-74
2022/03/31 05:25:50;;;;;;;38.03;21.57;;;;;;;;;;5104091;28;20230;-74
2022/03/31 05:28:17;;;;;;;37.93;20.77;;;;;;;;;;5108323;28;20214;-75
2022/03/31 05:30:45;;;;;;;36.43;20.20;;;;;;;;;;5101541;28;20257;-75
2022/03/31 05:33:12;;;;;;;33.47;19.40;;;;;;;;;;5102591;28;20288;-74
2022/03/31 05:35:39;;;;;;;32.33;18.27;;;;;;;;;;5110915;28;20199;-76
2022/03/31 05:38:07;;;;;;;29.77;17.40;;;;;;;;;;5103739;28;20285;-76
2022/03/31 05:40:36;;;;;;;31.90;17.70;;;;;;;;;;5114792;28;20222;-73
2022/03/31 05:43:03;;;;;;;29.57;17.43;;;;;;;;;;5102610;28;20688;-78
2022/03/31 05:45:31;;;;;;;31.50;17.73;;;;;;;;;;5095586;28;20225;-78
2022/03/31 05:47:58;;;;;;;31.17;17.50;;;;;;;;;;5110512;28;20251;-79
2022/03/31 05:50:25;;;;;;;32.97;17.00;;;;;;;;;;5111332;28;20230;-77
2022/03/31 05:52:53;;;;;;;31.50;17.20;;;;;;;;;;5100136;28;20222;-78
2022/03/31 05:55:21;;;;;;;30.63;16.97;;;;;;;;;;5095012;28;20196;-75
2022/03/31 05:57:49;;;;;;;31.10;17.10;;;;;;;;;;5100467;28;20608;-77
2022/03/31 06:00:17;;;;;;;29.50;17.90;;;;;;;;;;5097899;27;21526;-76
2022/03/31 06:02:46;;;;;;;32.87;18.07;;;;;;;;;;5108785;28;20231;-77
2022/03/31 06:05:13;;;;;;;32.13;18.27;;;;;;;;;;5113463;27;20240;-76
2022/03/31 06:07:41;;;;;;;34.27;19.33;;;;;;;;;;5104798;28;20272;-77
2022/03/31 06:10:08;;;;;;;32.33;18.33;;;;;;;;;;5094510;28;20286;-77
2022/03/31 06:12:36;;;;;;;30.73;18.47;;;;;;;;;;5097266;28;20648;-77
2022/03/31 06:15:05;;;;;;;31.83;18.47;;;;;;;;;;5097022;28;20286;-77
2022/03/31 06:17:32;;;;;;;50.20;19.83;;;;;;;;;;5095872;28;20655;-77
2022/03/31 06:19:59;;;;;;;33.80;18.60;;;;;;;;;;5109840;28;20232;-77
2022/03/31 06:22:27;;;;;;;34.77;18.07;;;;;;;;;;5097555;28;20252;-77
2022/03/31 06:24:54;;;;;;;30.60;17.13;;;;;;;;;;5110244;27;20681;-76
2022/03/31 06:27:21;;;;;;;32.37;16.47;;;;;;;;;;5106523;28;20210;-76
2022/03/31 06:29:49;;;;;;;32.37;16.90;;;;;;;;;;5102862;28;20286;-77
2022/03/31 06:32:18;;;;;;;30.83;16.57;;;;;;;;;;5102117;28;20681;-77
2022/03/31 06:34:45;;;;;;;25.37;15.50;;;;;;;;;;5113026;28;20203;-77
2022/03/31 06:37:13;;;;;;;27.23;15.63;;;;;;;;;;5101212;28;20226;-77
2022/03/31 06:39:41;;;;;;;27.27;14.43;;;;;;;;;;5104478;28;20194;-77
2022/03/31 06:42:08;;;;;;;23.10;13.77;;;;;;;;;;5101798;28;20312;-76
2022/03/31 06:44:35;;;;;;;23.17;13.20;;;;;;;;;;5103664;28;20206;-76
2022/03/31 06:47:02;;;;;;;25.10;14.77;;;;;;;;;;5102304;28;20220;-77
2022/03/31 06:49:31;;;;;;;23.13;13.20;;;;;;;;;;5102469;28;20220;-77
2022/03/31 06:51:58;;;;;;;24.37;12.97;;;;;;;;;;5103350;28;20254;-76
2022/03/31 06:54:26;;;;;;;20.80;11.67;;;;;;;;;;5110904;28;20198;-78
2022/03/31 06:56:55;;;;;;;17.50;10.40;;;;;;;;;;5106289;28;20211;-77
2022/03/31 06:59:22;;;;;;;17.70;10.67;;;;;;;;;;5093660;28;20268;-76
2022/03/31 07:01:49;;;;;;;17.27;10.00;;;;;;;;;;5108352;27;20241;-78
2022/03/31 07:04:16;;;;;;;16.50;9.67;;;;;;;;;;5104792;28;20223;-77
2022/03/31 07:06:45;;;;;;;14.60;9.00;;;;;;;;;;5108991;28;20282;-77
2022/03/31 07:09:12;;;;;;;13.17;8.13;;;;;;;;;;5105157;28;20313;-77
2022/03/31 07:11:39;;;;;;;12.37;7.67;;;;;;;;;;5104828;28;20241;-77
2022/03/31 07:14:07;;;;;;;10.27;6.27;;;;;;;;;;5107456;28;20980;-78
2022/03/31 07:16:34;;;;;;;9.80;6.30;;;;;;;;;;5103781;28;20295;-77
2022/03/31 07:19:03;;;;;;;10.03;6.10;;;;;;;;;;5095136;28;20232;-78
2022/03/31 07:21:30;;;;;;;7.53;5.37;;;;;;;;;;5106801;28;20218;-78
2022/03/31 07:24:00;;;;;;;9.67;5.40;;;;;;;;;;5093570;28;20298;-77
2022/03/31 07:26:28;;;;;;;8.10;4.77;;;;;;;;;;5075995;28;20549;-77
2022/03/31 07:28:55;;;;;;;6.97;4.40;;;;;;;;;;5095049;28;20232;-77
2022/03/31 07:31:24;;;;;;;9.47;4.30;;;;;;;;;;5105744;28;20227;-76
2022/03/31 07:33:51;;;;;;;7.97;4.10;;;;;;;;;;5110080;28;20204;-78
2022/03/31 07:36:18;;;;;;;7.47;4.77;;;;;;;;;;5095719;28;20908;-77
2022/03/31 07:38:46;;;;;;;14.53;4.83;;;;;;;;;;5100988;28;20282;-76
2022/03/31 07:41:15;;;;;;;6.70;4.17;;;;;;;;;;5102651;28;20217;-76
2022/03/31 07:43:43;;;;;;;6.10;3.80;;;;;;;;;;5100808;28;20286;-77
2022/03/31 07:46:10;;;;;;;9.90;4.33;;;;;;;;;;5104409;28;20229;-76
2022/03/31 07:48:37;;;;;;;6.60;4.13;;;;;;;;;;5104994;28;20249;-77
2022/03/31 07:51:05;;;;;;;6.13;4.10;;;;;;;;;;5097379;28;20311;-76
2022/03/31 07:53:33;;;;;;;8.37;4.23;;;;;;;;;;5102685;28;20240;-77
2022/03/31 07:56:00;;;;;;;11.77;4.60;;;;;;;;;;5102445;28;20202;-77
2022/03/31 07:58:29;;;;;;;7.57;4.03;;;;;;;;;;5112476;28;20271;-78
2022/03/31 08:00:56;;;;;;;7.30;4.33;;;;;;;;;;5110575;28;20247;-79
2022/03/31 08:03:24;;;;;;;7.90;4.43;;;;;;;;;;5108167;28;20292;-78
2022/03/31 08:05:51;;;;;;;7.97;3.97;;;;;;;;;;5103653;28;20280;-78
2022/03/31 08:08:19;;;;;;;8.43;4.33;;;;;;;;;;5093465;28;20315;-78
2022/03/31 08:10:46;;;;;;;5.63;4.13;;;;;;;;;;5075091;28;20220;-76
2022/03/31 08:13:13;;;;;;;6.70;4.57;;;;;;;;;;5084260;28;20226;-76
2022/03/31 08:15:42;;;;;;;10.60;6.23;;;;;;;;;;5082285;28;20206;-77
2022/03/31 08:18:10;;;;;;;19.17;13.10;;;;;;;;;;5087453;28;20338;-76
2022/03/31 08:20:37;;;;;;;120.53;81.63;;;;;;;;;;5080134;28;20199;-76
2022/03/31 08:23:04;;;;;;;55.00;35.77;;;;;;;;;;5081582;28;20314;-77
2022/03/31 08:25:32;;;;;;;16.53;10.43;;;;;;;;;;5079938;28;20236;-77
2022/03/31 08:27:59;;;;;;;7.83;6.07;;;;;;;;;;5080223;28;20253;-77
2022/03/31 08:30:28;;;;;;;14.17;7.77;;;;;;;;;;5080877;28;20246;-77
2022/03/31 08:32:56;;;;;;;7.83;6.33;;;;;;;;;;5080014;28;20543;-74
2022/03/31 08:35:27;;;;;;;31.07;27.13;;;;;;;;;;5076057;28;20677;-77
2022/03/31 08:38:01;;;;;;;8.33;7.27;;;;;;;;;;5087211;28;20195;-75
2022/03/31 08:40:28;;;;;;;12.43;11.10;;;;;;;;;;5080377;28;20211;-75
2022/03/31 08:42:56;;;;;;;5.13;4.57;;;;;;;;;;5091041;28;20264;-75
2022/03/31 08:45:23;;;;;;;6.20;5.60;;;;;;;;;;5077732;28;20270;-75
2022/03/31 08:47:53;;;;;;;5.63;4.47;;;;;;;;;;5090494;28;20285;-75
2022/03/31 08:50:23;;;;;;;44.30;34.97;;;;;;;;;;5081493;28;20284;-76
2022/03/31 08:52:51;;;;;;;6.17;5.00;;;;;;;;;;5090846;28;20280;-75
2022/03/31 08:55:19;;;;;;;14.03;8.70;;;;;;;;;;5077523;28;20226;-76
2022/03/31 08:57:48;;;;;;;50.00;36.83;;;;;;;;;;5079568;28;20281;-77
2022/03/31 09:00:16;;;;;;;19.30;15.20;;;;;;;;;;5082778;28;20294;-77
2022/03/31 09:02:53;;;;;;;9.50;6.30;;;;;;;;;;5090879;28;20308;-77
2022/03/31 09:05:22;;;;;;;15.60;10.50;;;;;;;;;;5079199;28;20282;-77
2022/03/31 09:08:00;;;;;;;19.50;11.30;;;;;;;;;;5083346;28;20220;-78
2022/03/31 09:10:31;;;;;;;4.73;3.63;;;;;;;;;;5103954;28;20221;-77
2022/03/31 09:12:59;;;;;;;26.83;17.70;;;;;;;;;;5103878;28;20240;-78
2022/03/31 09:15:26;;;;;;;21.10;16.10;;;;;;;;;;5099391;28;20240;-78
2022/03/31 09:17:54;;;;;;;20.43;12.93;;;;;;;;;;5099736;28;20286;-78
2022/03/31 09:20:23;;;;;;;8.90;8.00;;;;;;;;;;5097187;28;20189;-77
2022/03/31 09:22:50;;;;;;;5.47;4.87;;;;;;;;;;5107559;28;20303;-77
2022/03/31 09:25:24;;;;;;;5.77;4.97;;;;;;;;;;5095292;28;20229;-77
2022/03/31 09:27:51;;;;;;;4.70;4.07;;;;;;;;;;5095153;28;20716;-77
2022/03/31 09:30:19;;;;;;;6.83;6.13;;;;;;;;;;5103537;28;20775;-84
2022/03/31 09:32:50;;;;;;;11.73;10.63;;;;;;;;;;5105486;28;20191;-83
2022/03/31 09:35:21;;;;;;;6.23;4.70;;;;;;;;;;5091010;28;20188;-82
2022/03/31 09:37:49;;;;;;;6.40;5.20;;;;;;;;;;5106879;28;20242;-83
2022/03/31 09:40:18;;;;;;;10.93;9.93;;;;;;;;;;5096366;28;20237;-81
2022/03/31 09:42:56;;;;;;;10.43;7.40;;;;;;;;;;5099183;28;20304;-81
2022/03/31 09:45:23;;;;;;;20.07;15.07;;;;;;;;;;5109122;28;20261;-82
2022/03/31 09:47:51;;;;;;;17.17;12.33;;;;;;;;;;5110277;28;20284;-82
2022/03/31 09:50:19;;;;;;;5.50;4.20;;;;;;;;;;5105682;28;20600;-82
2022/03/31 09:52:46;;;;;;;8.70;7.00;;;;;;;;;;5094134;28;20282;-82
2022/03/31 09:55:18;;;;;;;7.23;4.67;;;;;;;;;;5110291;28;20227;-81
2022/03/31 09:57:45;;;;;;;14.03;10.50;;;;;;;;;;5099488;28;20211;-82
2022/03/31 10:00:13;;;;;;;8.37;5.80;;;;;;;;;;5099442;28;20332;-82
2022/03/31 10:02:41;;;;;;;7.10;5.63;;;;;;;;;;5107358;28;20231;-82
2022/03/31 10:05:08;;;;;;;3.53;2.60;;;;;;;;;;5109021;28;20206;-82
2022/03/31 10:07:36;;;;;;;8.33;3.40;;;;;;;;;;5110639;28;20229;-82
2022/03/31 10:10:03;;;;;;;5.53;4.00;;;;;;;;;;5112587;28;20667;-83
2022/03/31 10:12:35;;;;;;;2.83;2.10;;;;;;;;;;5097100;28;20219;-77
2022/03/31 10:15:04;;;;;;;6.73;3.00;;;;;;;;;;5111036;28;20279;-76
2022/03/31 10:17:32;;;;;;;8.90;6.33;;;;;;;;;;5096404;28;20286;-76
2022/03/31 10:20:08;;;;;;;2.23;1.60;;;;;;;;;;5101835;28;20196;-76
2022/03/31 10:25:20;;;;;;;3.50;2.10;;;;;;;;;;5114792;28;20279;-76
2022/03/31 10:27:50;;;;;;;4.13;3.50;;;;;;;;;;5104259;28;20576;-76
2022/03/31 10:30:18;;;;;;;7.33;6.70;;;;;;;;;;5108127;28;20206;-76
2022/03/31 10:32:52;;;;;;;2.73;2.20;;;;;;;;;;5101604;28;20281;-76
2022/03/31 10:35:24;;;;;;;2.73;1.80;;;;;;;;;;5106252;28;20289;-78
2022/03/31 10:37:51;;;;;;;2.33;1.83;;;;;;;;;;5108753;28;20227;-76
2022/03/31 10:40:28;;;;;;;1.43;1.33;;;;;;;;;;5114348;28;20202;-76
2022/03/31 10:42:57;;;;;;;1.53;1.07;;;;;;;;;;5103943;28;20254;-77
2022/03/31 10:45:34;;;;;;;1.90;0.73;;;;;;;;;;5093581;28;20200;-77
2022/03/31 10:48:01;;;;;;;2.03;0.73;;;;;;;;;;5107564;28;20197;-77
2022/03/31 10:50:31;;;;;;;2.90;2.53;;;;;;;;;;5110095;28;20289;-76
2022/03/31 10:52:59;;;;;;;2.37;1.50;;;;;;;;;;5104042;28;20227;-76
2022/03/31 10:55:34;;;;;;;1.60;1.40;;;;;;;;;;5114235;28;20204;-76
2022/03/31 10:58:03;;;;;;;3.13;2.20;;;;;;;;;;5109870;28;20244;-77
2022/03/31 11:00:30;;;;;;;4.03;1.77;;;;;;;;;;5093465;28;20355;-77
2022/03/31 11:02:57;;;;;;;2.57;2.10;;;;;;;;;;5106101;28;20267;-77
2022/03/31 11:05:27;;;;;;;5.03;4.53;;;;;;;;;;5103027;28;20277;-77
2022/03/31 11:08:02;;;;;;;11.33;10.23;;;;;;;;;;5106250;28;20270;-78
2022/03/31 11:10:31;;;;;;;3.50;2.70;;;;;;;;;;5110289;28;20225;-79
2022/03/31 11:12:58;;;;;;;2.40;2.00;;;;;;;;;;5091933;28;20623;-76
2022/03/31 11:15:27;;;;;;;5.23;3.27;;;;;;;;;;5092870;28;20198;-76
2022/03/31 11:18:01;;;;;;;12.57;7.77;;;;;;;;;;5099234;28;20195;-76
2022/03/31 11:20:28;;;;;;;4.90;3.27;;;;;;;;;;5093259;28;20202;-76
2022/03/31 11:22:59;;;;;;;16.67;10.23;;;;;;;;;;5109153;28;20258;-76
2022/03/31 11:25:27;;;;;;;12.60;7.73;;;;;;;;;;5098130;28;20199;-76
2022/03/31 11:27:56;;;;;;;11.77;7.60;;;;;;;;;;5096302;28;20200;-76
2022/03/31 11:30:24;;;;;;;3.57;2.43;;;;;;;;;;5110358;28;20201;-76
2022/03/31 11:32:55;;;;;;;23.23;14.90;;;;;;;;;;5096089;28;20221;-76
2022/03/31 11:35:24;;;;;;;6.13;4.10;;;;;;;;;;5093121;28;20198;-76
2022/03/31 11:37:53;;;;;;;11.70;6.80;;;;;;;;;;5093269;28;20202;-76
2022/03/31 11:40:22;;;;;;;21.53;12.83;;;;;;;;;;5094460;28;20194;-76
2022/03/31 11:42:50;;;;;;;11.03;5.57;;;;;;;;;;5112851;28;20263;-76
2022/03/31 11:45:23;;;;;;;8.73;5.33;;;;;;;;;;5096002;28;20206;-79
2022/03/31 11:47:56;;;;;;;10.17;6.47;;;;;;;;;;5109960;28;20277;-79
2022/03/31 11:50:24;;;;;;;3.73;2.50;;;;;;;;;;5102462;28;20322;-79
2022/03/31 11:52:52;;;;;;;10.90;6.73;;;;;;;;;;5102544;28;20690;-78
2022/03/31 11:55:20;;;;;;;9.23;7.20;;;;;;;;;;5106518;28;20677;-79
2022/03/31 11:57:51;;;;;;;5.27;3.13;;;;;;;;;;5098267;28;20206;-78
2022/03/31 12:00:19;;;;;;;7.40;4.83;;;;;;;;;;5103499;28;20215;-77
2022/03/31 12:02:56;;;;;;;17.70;12.20;;;;;;;;;;5092110;28;20667;-78
2022/03/31 12:05:24;;;;;;;5.70;3.37;;;;;;;;;;5091806;28;20221;-78
2022/03/31 12:07:52;;;;;;;7.70;5.57;;;;;;;;;;5095123;28;20309;-77
2022/03/31 12:10:19;;;;;;;8.03;5.00;;;;;;;;;;5107792;28;20229;-77
2022/03/31 12:12:47;;;;;;;5.90;3.30;;;;;;;;;;5103097;28;20288;-78
2022/03/31 12:15:19;;;;;;;5.53;2.07;;;;;;;;;;5101090;28;20190;-78
2022/03/31 12:17:58;;;;;;;2.77;1.60;;;;;;;;;;5105773;28;20237;-78
2022/03/31 12:20:26;;;;;;;15.57;10.20;;;;;;;;;;5101303;28;20198;-77
2022/03/31 12:22:53;;;;;;;4.70;3.10;;;;;;;;;;5101935;28;20674;-78
2022/03/31 12:25:30;;;;;;;6.83;4.43;;;;;;;;;;5097036;28;20237;-76
2022/03/31 12:28:04;;;;;;;4.67;3.03;;;;;;;;;;5096137;28;20234;-76
2022/03/31 12:30:41;;;;;;;5.50;3.27;;;;;;;;;;5109929;28;20322;-77
2022/03/31 12:33:18;;;;;;;5.13;3.20;;;;;;;;;;5094810;28;20285;-77
2022/03/31 12:35:51;;;;;;;5.63;3.33;;;;;;;;;;5103957;28;20671;-78
2022/03/31 12:38:18;;;;;;;24.40;15.47;;;;;;;;;;5111579;28;20233;-77
2022/03/31 12:40:45;;;;;;;7.00;4.87;;;;;;;;;;5110589;28;20661;-77
2022/03/31 12:43:13;;;;;;;10.17;5.57;;;;;;;;;;5104930;28;20306;-78
2022/03/31 12:45:40;;;;;;;9.33;6.00;;;;;;;;;;5102382;28;20292;-77
2022/03/31 12:48:12;;;;;;;6.17;4.17;;;;;;;;;;5103078;28;20284;-76
2022/03/31 12:50:43;;;;;;;9.93;6.17;;;;;;;;;;5102302;28;20205;-77
2022/03/31 12:53:10;;;;;;;8.57;4.67;;;;;;;;;;5096741;28;20204;-77
2022/03/31 12:55:41;;;;;;;10.50;5.87;;;;;;;;;;5101967;28;20281;-79
2022/03/31 12:58:08;;;;;;;6.27;2.83;;;;;;;;;;5100800;28;20233;-76
2022/03/31 13:00:36;;;;;;;23.03;14.87;;;;;;;;;;5091845;28;20253;-78
2022/03/31 13:03:05;;;;;;;24.07;14.13;;;;;;;;;;5102472;28;20729;-75
2022/03/31 13:05:33;;;;;;;4.70;4.17;;;;;;;;;;5112024;28;20201;-76
2022/03/31 13:08:01;;;;;;;3.50;1.77;;;;;;;;;;5093036;28;20238;-76
2022/03/31 13:10:29;;;;;;;2.87;1.60;;;;;;;;;;5072104;28;20290;-76
2022/03/31 13:12:56;;;;;;;4.33;2.60;;;;;;;;;;5075291;28;20286;-75
2022/03/31 13:15:23;;;;;;;2.10;1.50;;;;;;;;;;5075612;28;20326;-75
2022/03/31 13:17:51;;;;;;;2.87;1.20;;;;;;;;;;5070952;28;20275;-76
2022/03/31 13:20:19;;;;;;;2.33;1.27;;;;;;;;;;5087295;28;20282;-75
2022/03/31 13:22:46;;;;;;;3.80;1.60;;;;;;;;;;5075927;28;20285;-77
2022/03/31 13:25:16;;;;;;;2.77;1.60;;;;;;;;;;5073850;28;20864;-76
2022/03/31 13:27:43;;;;;;;3.60;1.37;;;;;;;;;;5091368;28;20250;-76
2022/03/31 13:30:10;;;;;;;3.30;1.53;;;;;;;;;;5095096;28;20281;-76
2022/03/31 13:32:38;;;;;;;3.53;1.60;;;;;;;;;;5089943;28;20231;-76
2022/03/31 13:35:06;;;;;;;3.50;1.80;;;;;;;;;;5073378;28;20209;-76
2022/03/31 13:37:35;;;;;;;4.10;2.30;;;;;;;;;;5074786;28;20662;-77
2022/03/31 13:40:06;;;;;;;5.10;3.13;;;;;;;;;;5079586;28;20287;-76
2022/03/31 13:42:37;;;;;;;15.40;13.80;;;;;;;;;;5076830;28;20204;-76
2022/03/31 13:45:09;;;;;;;7.00;5.10;;;;;;;;;;5087489;28;20203;-76
2022/03/31 13:47:36;;;;;;;10.43;7.07;;;;;;;;;;5074580;28;20208;-77
2022/03/31 13:50:03;;;;;;;4.17;3.27;;;;;;;;;;5075087;28;20234;-76
2022/03/31 13:52:30;;;;;;;6.17;2.90;;;;;;;;;;5075911;28;20619;-77
2022/03/31 13:54:58;;;;;;;35.53;27.43;;;;;;;;;;5086143;28;20200;-77
2022/03/31 14:02:56;;;;;;;7.47;4.70;;;;;;;;;;5081199;28;20276;-76
2022/03/31 14:05:23;;;;;;;9.43;6.50;;;;;;;;;;5092690;28;20292;-76
2022/03/31 14:07:51;;;;;;;6.07;4.50;;;;;;;;;;5082427;28;20255;-76
2022/03/31 14:10:18;;;;;;;8.80;5.00;;;;;;;;;;5106220;28;20282;-75
2022/03/31 14:12:45;;;;;;;6.80;3.10;;;;;;;;;;5105167;28;20623;-76
2022/03/31 14:15:16;;;;;;;6.13;3.73;;;;;;;;;;5102964;28;20225;-76
2022/03/31 14:17:43;;;;;;;7.17;4.60;;;;;;;;;;5107665;28;20244;-76
2022/03/31 14:20:11;;;;;;;8.83;5.90;;;;;;;;;;5110438;28;20453;-76
2022/03/31 14:22:38;;;;;;;9.27;4.00;;;;;;;;;;5102676;28;20203;-75
2022/03/31 14:25:06;;;;;;;4.70;2.80;;;;;;;;;;5109492;28;20284;-76
2022/03/31 14:27:33;;;;;;;7.30;4.10;;;;;;;;;;5098177;28;20293;-76
2022/03/31 14:30:00;;;;;;;4.10;2.53;;;;;;;;;;5105471;28;20202;-76
2022/03/31 14:32:29;;;;;;;6.53;3.80;;;;;;;;;;5099211;28;20236;-75
2022/03/31 14:34:56;;;;;;;7.27;3.80;;;;;;;;;;5101004;28;20225;-76
2022/03/31 14:37:23;;;;;;;7.07;5.13;;;;;;;;;;5093135;28;20610;-76
2022/03/31 14:39:50;;;;;;;6.60;4.00;;;;;;;;;;5104809;28;20193;-75
2022/03/31 14:42:18;;;;;;;7.97;2.83;;;;;;;;;;5101364;28;20232;-76
2022/03/31 14:44:45;;;;;;;6.90;4.70;;;;;;;;;;5105561;28;20300;-76